createdAt,value
2018-09-14T00:01:43.212Z,23.90
2018-09-14T00:04:11.508Z,23.90
2018-09-14T00:06:39.816Z,23.90
2018-09-14T00:09:10.683Z,23.90
2018-09-14T00:11:39.059Z,23.80
2018-09-14T00:14:07.438Z,23.80
2018-09-14T00:16:36.027Z,23.80
2018-09-14T00:19:04.503Z,23.80
2018-09-14T00:21:32.731Z,23.70
2018-09-14T00:24:00.990Z,23.70
2018-09-14T00:26:29.235Z,23.70
2018-09-14T00:28:57.523Z,23.60
2018-09-14T00:31:25.783Z,23.50
2018-09-14T00:33:54.074Z,23.50
2018-09-14T00:36:22.310Z,23.40
2018-09-14T00:38:50.580Z,23.40
2018-09-14T00:41:18.879Z,23.40
2018-09-14T00:43:47.138Z,23.30
2018-09-14T00:46:15.375Z,23.20
2018-09-14T00:48:43.668Z,23.30
2018-09-14T00:51:11.966Z,23.30
2018-09-14T00:53:40.252Z,23.30
2018-09-14T00:56:08.495Z,23.40
2018-09-14T00:58:36.787Z,23.40
2018-09-14T01:01:05.089Z,23.30
2018-09-14T01:03:33.615Z,23.10
2018-09-14T01:06:01.852Z,23.00
2018-09-14T01:08:30.095Z,23.00
2018-09-14T01:10:58.354Z,23.00
2018-09-14T01:13:26.627Z,23.00
2018-09-14T01:15:54.931Z,23.00
2018-09-14T01:18:23.240Z,23.10
2018-09-14T01:20:51.540Z,23.10
2018-09-14T01:23:19.880Z,23.10
2018-09-14T01:25:48.182Z,23.00
2018-09-14T01:28:16.586Z,23.10
2018-09-14T01:30:44.871Z,23.00
2018-09-14T01:33:13.209Z,23.10
2018-09-14T01:35:46.859Z,23.10
2018-09-14T01:38:15.164Z,23.10
2018-09-14T01:40:43.476Z,23.00
2018-09-14T01:43:11.781Z,23.00
2018-09-14T01:45:40.104Z,23.00
2018-09-14T01:48:08.428Z,23.00
2018-09-14T01:50:36.703Z,23.10
2018-09-14T01:53:05.089Z,23.10
2018-09-14T01:55:33.387Z,23.20
2018-09-14T01:58:01.739Z,23.20
2018-09-14T02:00:30.067Z,23.30
2018-09-14T02:02:58.372Z,23.30
2018-09-14T02:05:26.640Z,23.30
2018-09-14T02:07:54.940Z,23.40
2018-09-14T02:10:23.968Z,23.40
2018-09-14T02:12:53.374Z,23.40
2018-09-14T02:15:21.681Z,23.40
2018-09-14T02:17:49.985Z,23.40
2018-09-14T02:20:19.167Z,23.40
2018-09-14T02:22:48.281Z,23.40
2018-09-14T02:25:16.604Z,23.50
2018-09-14T02:27:44.920Z,23.50
2018-09-14T02:30:13.217Z,23.40
2018-09-14T02:32:41.524Z,23.40
2018-09-14T02:35:10.695Z,23.30
2018-09-14T02:37:39.061Z,23.30
2018-09-14T02:40:07.534Z,23.30
2018-09-14T02:42:35.846Z,23.30
2018-09-14T02:45:04.861Z,23.20
2018-09-14T02:47:33.215Z,23.20
2018-09-14T02:50:01.518Z,23.10
2018-09-14T02:52:29.940Z,23.00
2018-09-14T02:54:58.777Z,23.00
2018-09-14T02:57:27.081Z,23.00
2018-09-14T02:59:55.395Z,23.00
2018-09-14T03:02:23.680Z,23.00
2018-09-14T03:04:52.007Z,23.00
2018-09-14T03:07:20.296Z,23.00
2018-09-14T03:09:48.623Z,23.00
2018-09-14T03:12:16.983Z,23.00
2018-09-14T03:14:45.366Z,23.00
2018-09-14T03:17:13.652Z,23.00
2018-09-14T03:19:41.976Z,23.00
2018-09-14T03:22:10.292Z,23.00
2018-09-14T03:24:38.639Z,23.00
2018-09-14T03:27:07.122Z,23.00
2018-09-14T03:29:35.431Z,23.00
2018-09-14T03:32:03.741Z,23.00
2018-09-14T03:34:32.059Z,22.90
2018-09-14T03:37:00.408Z,22.80
2018-09-14T03:39:28.788Z,22.80
2018-09-14T03:41:57.140Z,22.90
2018-09-14T03:44:25.453Z,22.90
2018-09-14T03:46:53.753Z,22.90
2018-09-14T03:49:22.062Z,22.90
2018-09-14T03:51:50.436Z,22.80
2018-09-14T03:54:18.744Z,22.70
2018-09-14T03:56:47.070Z,22.70
2018-09-14T03:59:15.415Z,22.70
2018-09-14T04:01:43.744Z,22.80
2018-09-14T04:04:12.144Z,22.80
2018-09-14T04:06:40.465Z,22.80
2018-09-14T04:09:10.084Z,22.80
2018-09-14T04:11:38.407Z,22.90
2018-09-14T04:14:07.275Z,22.90
2018-09-14T04:16:35.599Z,22.90
2018-09-14T04:19:04.904Z,22.90
2018-09-14T04:21:34.596Z,22.90
2018-09-14T04:24:03.199Z,22.90
2018-09-14T04:26:31.489Z,23.00
2018-09-14T04:29:00.603Z,22.90
2018-09-14T04:31:29.105Z,22.90
2018-09-14T04:33:57.583Z,22.80
2018-09-14T04:36:25.925Z,22.80
2018-09-14T04:38:54.244Z,22.70
2018-09-14T04:41:22.571Z,22.70
2018-09-14T04:43:50.884Z,22.60
2018-09-14T04:46:19.211Z,22.60
2018-09-14T04:48:47.502Z,22.60
2018-09-14T04:51:15.818Z,22.60
2018-09-14T04:53:44.201Z,22.50
2018-09-14T04:56:12.551Z,22.40
2018-09-14T04:58:40.935Z,22.30
2018-09-14T05:01:09.286Z,22.30
2018-09-14T05:03:37.891Z,22.20
2018-09-14T05:06:06.706Z,22.20
2018-09-14T05:08:35.148Z,22.20
2018-09-14T05:11:03.540Z,22.20
2018-09-14T05:13:31.864Z,22.20
2018-09-14T05:16:00.192Z,22.20
2018-09-14T05:18:28.541Z,22.20
2018-09-14T05:20:56.940Z,22.20
2018-09-14T05:23:25.225Z,22.20
2018-09-14T05:25:53.608Z,22.10
2018-09-14T05:28:21.955Z,22.10
2018-09-14T05:30:50.383Z,22.00
2018-09-14T05:33:18.651Z,22.10
2018-09-14T05:35:47.045Z,22.00
2018-09-14T05:38:15.427Z,22.10
2018-09-14T05:40:43.780Z,22.00
2018-09-14T05:43:12.401Z,21.80
2018-09-14T05:45:40.736Z,21.80
2018-09-14T05:48:09.063Z,21.80
2018-09-14T05:50:37.364Z,21.70
2018-09-14T05:53:05.697Z,21.80
2018-09-14T05:55:34.084Z,21.80
2018-09-14T05:58:02.639Z,21.80
2018-09-14T06:00:30.981Z,21.80
2018-09-14T06:02:59.374Z,21.90
2018-09-14T06:05:27.704Z,21.90
2018-09-14T06:07:56.051Z,21.90
2018-09-14T06:10:24.451Z,21.90
2018-09-14T06:12:52.795Z,22.00
2018-09-14T06:15:21.108Z,22.00
2018-09-14T06:17:49.432Z,22.00
2018-09-14T06:20:17.871Z,22.00
2018-09-14T06:22:46.214Z,22.10
2018-09-14T06:25:14.572Z,22.00
2018-09-14T06:27:42.882Z,22.00
2018-09-14T06:30:11.255Z,22.00
2018-09-14T06:32:39.771Z,22.00
2018-09-14T06:35:08.099Z,22.10
2018-09-14T06:37:36.415Z,22.10
2018-09-14T06:40:04.915Z,22.10
2018-09-14T06:42:33.291Z,22.20
2018-09-14T06:45:01.739Z,22.10
2018-09-14T06:47:29.963Z,22.20
2018-09-14T06:49:58.239Z,22.30
2018-09-14T06:52:26.543Z,22.30
2018-09-14T06:54:54.831Z,22.40
2018-09-14T06:57:23.299Z,22.40
2018-09-14T06:59:51.590Z,22.30
2018-09-14T07:02:19.986Z,22.30
2018-09-14T07:04:48.261Z,22.30
2018-09-14T07:07:16.612Z,22.30
2018-09-14T07:09:44.937Z,22.30
2018-09-14T07:12:13.256Z,22.30
2018-09-14T07:14:41.828Z,22.30
2018-09-14T07:17:10.172Z,22.30
2018-09-14T07:19:38.527Z,22.30
2018-09-14T07:22:06.948Z,22.30
2018-09-14T07:24:35.280Z,22.40
2018-09-14T07:27:03.538Z,22.40
2018-09-14T07:29:31.878Z,22.40
2018-09-14T07:32:00.325Z,22.50
2018-09-14T07:34:28.644Z,22.50
2018-09-14T07:36:57.027Z,22.60
2018-09-14T07:39:25.309Z,22.70
2018-09-14T07:41:54.469Z,22.80
2018-09-14T07:44:22.845Z,22.90
2018-09-14T07:46:51.223Z,22.90
2018-09-14T07:49:19.539Z,23.10
2018-09-14T07:51:47.891Z,23.20
2018-09-14T07:54:16.207Z,23.30
2018-09-14T07:56:44.610Z,23.40
2018-09-14T07:59:12.950Z,23.60
2018-09-14T08:01:41.303Z,23.70
2018-09-14T08:04:09.636Z,23.80
2018-09-14T08:06:37.955Z,23.80
2018-09-14T08:09:09.055Z,23.90
2018-09-14T08:11:37.613Z,24.00
2018-09-14T08:14:05.916Z,24.10
2018-09-14T08:16:34.216Z,24.20
2018-09-14T08:19:02.504Z,24.30
2018-09-14T08:21:30.885Z,24.40
2018-09-14T08:23:59.275Z,24.50
2018-09-14T08:26:27.587Z,24.60
2018-09-14T08:28:55.869Z,24.70
2018-09-14T08:31:24.403Z,24.90
2018-09-14T08:33:52.696Z,25.10
2018-09-14T08:36:21.172Z,25.30
2018-09-14T08:38:49.485Z,25.50
2018-09-14T08:41:17.793Z,25.80
2018-09-14T08:43:46.364Z,25.90
2018-09-14T08:46:14.818Z,26.20
2018-09-14T08:48:43.169Z,26.50
2018-09-14T08:51:11.464Z,26.90
2018-09-14T08:53:40.123Z,27.40
2018-09-14T08:56:08.407Z,27.80
2018-09-14T08:58:36.736Z,28.20
2018-09-14T09:01:05.897Z,28.50
2018-09-14T09:03:34.287Z,28.70
2018-09-14T09:06:02.564Z,28.80
2018-09-14T09:08:30.880Z,28.70
2018-09-14T09:10:59.224Z,28.70
2018-09-14T09:13:27.637Z,28.50
2018-09-14T09:15:55.968Z,28.40
2018-09-14T09:18:24.283Z,28.40
2018-09-14T09:20:52.592Z,28.30
2018-09-14T09:23:20.934Z,28.40
2018-09-14T09:25:49.245Z,28.40
2018-09-14T09:28:17.579Z,28.50
2018-09-14T09:30:45.868Z,28.60
2018-09-14T09:33:14.168Z,28.60
2018-09-14T09:35:42.563Z,28.60
2018-09-14T09:38:11.020Z,28.60
2018-09-14T09:40:39.316Z,28.50
2018-09-14T09:43:07.653Z,28.40
2018-09-14T09:45:35.903Z,28.30
2018-09-14T09:48:04.189Z,28.30
2018-09-14T09:50:32.540Z,28.20
2018-09-14T09:53:00.883Z,28.20
2018-09-14T09:55:29.207Z,28.20
2018-09-14T09:57:57.507Z,28.30
2018-09-14T10:00:31.289Z,28.40
2018-09-14T10:03:05.067Z,28.40
2018-09-14T10:05:38.780Z,28.50
2018-09-14T10:08:07.175Z,28.50
2018-09-14T10:10:35.492Z,28.50
2018-09-14T10:13:04.174Z,28.40
2018-09-14T10:15:32.552Z,28.30
2018-09-14T10:18:01.126Z,28.30
2018-09-14T10:20:29.493Z,28.30
2018-09-14T10:22:57.803Z,28.30
2018-09-14T10:25:26.103Z,28.40
2018-09-14T10:27:54.389Z,28.60
2018-09-14T10:30:22.677Z,28.80
2018-09-14T10:32:50.977Z,29.10
2018-09-14T10:35:19.371Z,29.30
2018-09-14T10:37:47.712Z,29.40
2018-09-14T10:40:16.070Z,29.70
2018-09-14T10:42:44.431Z,29.90
2018-09-14T10:45:12.726Z,30.00
2018-09-14T10:47:41.110Z,30.10
2018-09-14T10:50:09.451Z,30.20
2018-09-14T10:52:37.765Z,30.40
2018-09-14T10:55:06.190Z,30.50
2018-09-14T10:57:34.485Z,30.60
2018-09-14T11:00:02.827Z,30.70
2018-09-14T11:02:31.263Z,30.90
2018-09-14T11:04:59.571Z,31.10
2018-09-14T11:07:27.923Z,31.20
2018-09-14T11:09:56.288Z,31.20
2018-09-14T11:12:24.652Z,31.40
2018-09-14T11:14:53.035Z,31.60
2018-09-14T11:17:21.322Z,31.80
2018-09-14T11:19:49.607Z,31.80
2018-09-14T11:22:17.901Z,31.80
2018-09-14T11:24:46.398Z,31.90
2018-09-14T11:27:14.584Z,32.20
2018-09-14T11:29:42.908Z,32.90
2018-09-14T11:32:11.243Z,33.60
2018-09-14T11:34:39.568Z,33.80
2018-09-14T11:37:08.000Z,33.40
2018-09-14T11:39:36.343Z,32.90
2018-09-14T11:42:04.835Z,32.30
2018-09-14T11:44:33.151Z,31.80
2018-09-14T11:47:01.532Z,31.30
2018-09-14T11:49:29.951Z,30.90
2018-09-14T11:51:58.249Z,30.70
2018-09-14T11:54:26.675Z,30.80
2018-09-14T11:56:54.847Z,30.80
2018-09-14T11:59:23.303Z,30.70
2018-09-14T12:01:51.654Z,30.80
2018-09-14T12:04:20.002Z,31.50
2018-09-14T12:06:48.441Z,32.70
2018-09-14T12:09:16.791Z,34.20
2018-09-14T12:11:45.135Z,35.90
2018-09-14T12:14:13.470Z,37.40
2018-09-14T12:16:41.789Z,38.90
2018-09-14T12:19:10.093Z,40.00
2018-09-14T12:21:38.565Z,40.70
2018-09-14T12:24:06.975Z,41.10
2018-09-14T12:26:35.252Z,41.40
2018-09-14T12:29:03.673Z,41.60
2018-09-14T12:31:32.028Z,41.20
2018-09-14T12:34:00.341Z,40.50
2018-09-14T12:36:28.652Z,39.50
2018-09-14T12:38:56.972Z,38.20
2018-09-14T12:41:25.364Z,37.20
2018-09-14T12:43:53.643Z,36.10
2018-09-14T12:46:23.024Z,35.20
2018-09-14T12:48:52.310Z,34.30
2018-09-14T12:51:21.160Z,33.60
2018-09-14T12:53:49.460Z,33.10
2018-09-14T12:56:17.803Z,32.80
2018-09-14T12:58:46.232Z,32.70
2018-09-14T13:01:14.620Z,32.30
2018-09-14T13:03:42.981Z,32.00
2018-09-14T13:06:11.362Z,31.30
2018-09-14T13:08:39.677Z,30.90
2018-09-14T13:11:08.002Z,30.50
2018-09-14T13:13:36.355Z,30.20
2018-09-14T13:16:04.756Z,29.90
2018-09-14T13:18:33.116Z,29.60
2018-09-14T13:21:01.432Z,29.30
2018-09-14T13:23:30.180Z,29.20
2018-09-14T13:25:58.570Z,29.00
2018-09-14T13:28:26.972Z,28.90
2018-09-14T13:30:55.403Z,28.80
2018-09-14T13:33:23.707Z,28.80
2018-09-14T13:35:53.172Z,28.90
2018-09-14T13:38:21.480Z,29.30
2018-09-14T13:40:49.950Z,30.00
2018-09-14T13:43:18.240Z,30.70
2018-09-14T13:45:46.588Z,31.40
2018-09-14T13:48:15.339Z,31.90
2018-09-14T13:50:43.720Z,32.30
2018-09-14T13:53:12.131Z,32.70
2018-09-14T13:55:40.551Z,33.00
2018-09-14T13:58:08.864Z,33.10
2018-09-14T14:00:37.179Z,33.00
2018-09-14T14:03:06.080Z,32.90
2018-09-14T14:05:34.569Z,32.60
2018-09-14T14:08:02.964Z,32.30
2018-09-14T14:10:31.268Z,32.00
2018-09-14T14:12:59.613Z,31.60
2018-09-14T14:15:27.920Z,31.30
2018-09-14T14:17:56.276Z,31.00
2018-09-14T14:20:24.660Z,30.70
2018-09-14T14:22:53.057Z,30.50
2018-09-14T14:25:21.361Z,30.30
2018-09-14T14:27:49.644Z,30.20
2018-09-14T14:30:18.025Z,30.20
2018-09-14T14:32:46.355Z,30.20
2018-09-14T14:35:14.684Z,30.40
2018-09-14T14:37:43.316Z,31.10
2018-09-14T14:40:11.656Z,32.00
2018-09-14T14:42:40.202Z,32.70
2018-09-14T14:45:08.584Z,33.10
2018-09-14T14:47:36.936Z,33.30
2018-09-14T14:50:05.261Z,33.30
2018-09-14T14:52:33.618Z,33.20
2018-09-14T14:55:01.939Z,33.00
2018-09-14T14:57:30.293Z,32.90
2018-09-14T14:59:58.574Z,32.80
2018-09-14T15:02:26.981Z,32.90
2018-09-14T15:04:55.288Z,33.30
2018-09-14T15:07:23.753Z,33.70
2018-09-14T15:09:52.416Z,33.90
2018-09-14T15:12:20.791Z,33.90
2018-09-14T15:14:49.069Z,33.70
2018-09-14T15:17:17.407Z,33.30
2018-09-14T15:19:45.712Z,33.10
2018-09-14T15:22:14.032Z,32.80
2018-09-14T15:24:42.536Z,32.60
2018-09-14T15:27:11.049Z,32.30
2018-09-14T15:29:39.444Z,32.10
2018-09-14T15:32:07.792Z,31.80
2018-09-14T15:34:36.147Z,31.50
2018-09-14T15:37:04.472Z,31.00
2018-09-14T15:39:32.747Z,30.80
2018-09-14T15:42:01.147Z,30.70
2018-09-14T15:44:29.456Z,30.60
2018-09-14T15:46:57.803Z,30.50
2018-09-14T15:49:26.271Z,30.30
2018-09-14T15:51:54.530Z,30.10
2018-09-14T15:54:22.967Z,29.80
2018-09-14T15:56:51.356Z,29.60
2018-09-14T15:59:19.643Z,29.30
2018-09-14T16:01:47.964Z,29.10
2018-09-14T16:04:16.300Z,29.10
2018-09-14T16:06:44.684Z,28.90
2018-09-14T16:09:12.999Z,28.80
2018-09-14T16:11:41.381Z,28.70
2018-09-14T16:14:09.711Z,28.50
2018-09-14T16:16:38.067Z,28.40
2018-09-14T16:19:06.497Z,28.30
2018-09-14T16:21:34.827Z,28.20
2018-09-14T16:24:03.167Z,28.10
2018-09-14T16:26:31.529Z,27.90
2018-09-14T16:29:00.007Z,27.80
2018-09-14T16:31:28.315Z,27.80
2018-09-14T16:33:56.616Z,27.70
2018-09-14T16:36:25.004Z,27.70
2018-09-14T16:38:53.435Z,27.70
2018-09-14T16:41:21.748Z,27.60
2018-09-14T16:43:50.069Z,27.60
2018-09-14T16:46:18.464Z,27.50
2018-09-14T16:48:46.749Z,27.50
2018-09-14T16:51:15.268Z,27.40
2018-09-14T16:53:43.611Z,27.20
2018-09-14T16:56:12.123Z,27.20
2018-09-14T16:58:41.433Z,27.20
2018-09-14T17:01:09.916Z,27.20
2018-09-14T17:03:38.477Z,27.20
2018-09-14T17:06:06.863Z,27.10
2018-09-14T17:08:35.207Z,27.00
2018-09-14T17:11:03.508Z,26.90
2018-09-14T17:13:31.851Z,26.90
2018-09-14T17:16:00.180Z,26.90
2018-09-14T17:18:28.523Z,26.90
2018-09-14T17:20:56.837Z,26.90
2018-09-14T17:23:26.218Z,26.80
2018-09-14T17:25:54.511Z,26.80
2018-09-14T17:28:22.805Z,26.80
2018-09-14T17:30:51.579Z,26.70
2018-09-14T17:33:19.897Z,26.70
2018-09-14T17:35:48.199Z,26.70
2018-09-14T17:38:16.562Z,26.70
2018-09-14T17:40:44.834Z,26.60
2018-09-14T17:43:13.202Z,26.60
2018-09-14T17:45:41.717Z,26.60
2018-09-14T17:48:10.025Z,26.60
2018-09-14T17:50:38.424Z,26.50
2018-09-14T17:53:06.828Z,26.50
2018-09-14T17:55:35.177Z,26.40
2018-09-14T17:58:03.509Z,26.40
2018-09-14T18:00:31.816Z,26.40
2018-09-14T18:03:00.153Z,26.30
2018-09-14T18:05:28.491Z,26.30
2018-09-14T18:07:56.906Z,26.20
2018-09-14T18:10:25.212Z,26.20
2018-09-14T18:12:53.563Z,26.20
2018-09-14T18:15:21.864Z,26.20
2018-09-14T18:17:50.360Z,26.10
2018-09-14T18:20:18.712Z,26.10
2018-09-14T18:22:47.032Z,26.10
2018-09-14T18:25:15.364Z,26.10
2018-09-14T18:27:44.206Z,26.10
2018-09-14T18:30:12.471Z,26.00
2018-09-14T18:32:41.200Z,26.00
2018-09-14T18:35:09.503Z,26.00
2018-09-14T18:37:37.999Z,26.00
2018-09-14T18:40:06.360Z,26.00
2018-09-14T18:42:34.640Z,25.90
2018-09-14T18:45:03.016Z,25.90
2018-09-14T18:47:31.349Z,25.80
2018-09-14T18:49:59.702Z,25.70
2018-09-14T18:52:28.091Z,25.70
2018-09-14T18:54:56.405Z,25.70
2018-09-14T18:57:24.737Z,25.70
2018-09-14T18:59:53.047Z,25.70
2018-09-14T19:02:21.322Z,25.60
2018-09-14T19:04:49.630Z,25.60
2018-09-14T19:07:18.059Z,25.60
2018-09-14T19:09:46.425Z,25.50
2018-09-14T19:12:14.981Z,25.50
2018-09-14T19:14:43.399Z,25.40
2018-09-14T19:17:11.815Z,25.40
2018-09-14T19:19:40.165Z,25.40
2018-09-14T19:22:08.683Z,25.30
2018-09-14T19:24:37.058Z,25.30
2018-09-14T19:27:05.318Z,25.30
2018-09-14T19:29:33.667Z,25.20
2018-09-14T19:32:02.013Z,25.20
2018-09-14T19:34:30.355Z,25.20
2018-09-14T19:36:58.660Z,25.20
2018-09-14T19:39:26.988Z,25.10
2018-09-14T19:41:55.308Z,25.10
2018-09-14T19:44:23.656Z,25.10
2018-09-14T19:46:51.946Z,25.00
2018-09-14T19:49:20.254Z,25.00
2018-09-14T19:51:48.568Z,25.00
2018-09-14T19:54:16.939Z,25.00
2018-09-14T19:56:45.358Z,24.90
2018-09-14T19:59:13.853Z,24.90
2018-09-14T20:01:42.409Z,24.90
2018-09-14T20:04:10.707Z,24.90
2018-09-14T20:06:39.031Z,24.90
2018-09-14T20:09:12.695Z,24.80
2018-09-14T20:11:41.452Z,24.80
2018-09-14T20:14:12.700Z,24.70
2018-09-14T20:16:43.782Z,24.60
2018-09-14T20:19:12.422Z,24.50
2018-09-14T20:21:40.921Z,24.50
2018-09-14T20:24:09.260Z,24.60
2018-09-14T20:26:37.668Z,24.60
2018-09-14T20:29:06.069Z,24.60
2018-09-14T20:31:34.515Z,24.70
2018-09-14T20:34:03.065Z,24.70
2018-09-14T20:36:31.375Z,24.60
2018-09-14T20:38:59.741Z,24.60
2018-09-14T20:41:28.065Z,24.60
2018-09-14T20:43:56.616Z,24.50
2018-09-14T20:46:26.064Z,24.50
2018-09-14T20:48:54.698Z,24.40
2018-09-14T20:51:24.223Z,24.40
2018-09-14T20:53:59.542Z,24.30
2018-09-14T20:56:27.978Z,24.30
2018-09-14T20:58:56.358Z,24.20
2018-09-14T21:01:27.010Z,24.20
2018-09-14T21:03:55.714Z,24.10
2018-09-14T21:06:24.043Z,24.10
2018-09-14T21:08:52.368Z,24.00
2018-09-14T21:11:20.717Z,24.00
2018-09-14T21:13:50.856Z,23.90
2018-09-14T21:16:19.348Z,24.00
2018-09-14T21:18:47.701Z,24.00
2018-09-14T21:21:16.069Z,24.00
2018-09-14T21:23:44.450Z,24.00
2018-09-14T21:26:12.920Z,24.00
2018-09-14T21:28:41.320Z,24.00
2018-09-14T21:31:09.706Z,23.90
2018-09-14T21:33:38.009Z,23.90
2018-09-14T21:36:06.352Z,23.80
2018-09-14T21:38:34.659Z,23.70
2018-09-14T21:41:02.979Z,23.70
2018-09-14T21:43:31.300Z,23.60
2018-09-14T21:45:59.592Z,23.50
2018-09-14T21:48:27.920Z,23.50
2018-09-14T21:50:56.268Z,23.50
2018-09-14T21:53:24.660Z,23.50
2018-09-14T21:55:52.944Z,23.50
2018-09-14T21:58:21.263Z,23.60
2018-09-14T22:00:54.828Z,23.60
2018-09-14T22:03:23.135Z,23.60
2018-09-14T22:05:51.455Z,23.60
2018-09-14T22:08:19.804Z,23.60
2018-09-14T22:10:48.164Z,23.60
2018-09-14T22:13:16.616Z,23.60
2018-09-14T22:15:45.174Z,23.60
2018-09-14T22:18:13.555Z,23.60
2018-09-14T22:20:41.980Z,23.60
2018-09-14T22:23:10.383Z,23.60
2018-09-14T22:25:38.731Z,23.70
2018-09-14T22:28:07.036Z,23.60
2018-09-14T22:30:35.350Z,23.60
2018-09-14T22:33:03.892Z,23.60
2018-09-14T22:35:32.182Z,23.60
2018-09-14T22:38:00.511Z,23.50
2018-09-14T22:40:28.970Z,23.50
2018-09-14T22:42:57.580Z,23.40
2018-09-14T22:45:26.506Z,23.40
2018-09-14T22:47:55.510Z,23.40
2018-09-14T22:50:24.264Z,23.40
2018-09-14T22:52:55.695Z,23.30
2018-09-14T22:55:27.884Z,23.30
2018-09-14T22:57:56.852Z,23.40
2018-09-14T23:00:30.713Z,23.30
2018-09-14T23:02:59.121Z,23.30
2018-09-14T23:05:27.413Z,23.20
2018-09-14T23:07:55.968Z,23.10
2018-09-14T23:10:24.513Z,23.10
2018-09-14T23:12:52.984Z,23.10
2018-09-14T23:15:21.292Z,23.00
2018-09-14T23:17:49.682Z,22.90
2018-09-14T23:20:18.008Z,22.80
2018-09-14T23:22:46.315Z,22.70
2018-09-14T23:25:14.632Z,22.60
2018-09-14T23:27:42.961Z,22.60
2018-09-14T23:30:12.907Z,22.50
2018-09-14T23:32:41.352Z,22.50
2018-09-14T23:35:10.817Z,22.40
2018-09-14T23:37:39.268Z,22.40
2018-09-14T23:40:08.392Z,22.30
2018-09-14T23:42:37.051Z,22.30
2018-09-14T23:45:05.938Z,22.20
2018-09-14T23:47:34.477Z,22.10
2018-09-14T23:50:03.395Z,22.10
2018-09-14T23:52:31.880Z,22.00
2018-09-14T23:55:00.340Z,22.00
2018-09-14T23:57:28.908Z,21.90
2018-09-14T23:59:57.918Z,21.80
